Terminal Aerodrome Forecast
Issued by NWS

Home | Current Version | Previous Version | Text Only | Print | Product List | Glossary On
Versions: 1 2 3 4 5 6 7 8 9 10 11 12 13 14 15 16 17 18 19 20 21 22 23 24 25 26 27 28 29 30 31 32 33 34
639
FTUS45 KCYS 282327
TAFAIA
TAF
KAIA 282327Z 2900/2924 09010KT 5SM -RA SCT007 BKN015 OVC025
      TEMPO 2900/2904 2SM -RA BKN007 OVC015
     FM290400 06006KT 2SM -RA OVC007
     FM291000 02005KT 3SM -RASN BKN004 OVC007
     FM291500 36007KT P6SM OVC015
     FM291800 01010KT P6SM BKN025 OVC050=

USA.gov is the U.S. government's official web portal to all federal, state and local government web resources and services.